sensor_id;sensor_type;location;lat;lon;timestamp;temperature;humidity
41116;DHT22;26861;51.824;4.682;2023-04-08T00:02:03;16.80;79.70
41116;DHT22;26861;51.824;4.682;2023-04-08T00:04:29;17.10;71.10
41116;DHT22;26861;51.824;4.682;2023-04-08T00:06:55;17.30;80.10
41116;DHT22;26861;51.824;4.682;2023-04-08T00:09:22;17.00;80.10
41116;DHT22;26861;51.824;4.682;2023-04-08T00:11:47;17.10;80.20
41116;DHT22;26861;51.824;4.682;2023-04-08T00:14:13;16.70;79.90
41116;DHT22;26861;51.824;4.682;2023-04-08T00:16:38;17.10;80.30
41116;DHT22;26861;51.824;4.682;2023-04-08T00:19:04;17.10;80.30
41116;DHT22;26861;51.824;4.682;2023-04-08T00:21:31;16.90;80.00
41116;DHT22;26861;51.824;4.682;2023-04-08T00:23:57;17.10;80.00
41116;DHT22;26861;51.824;4.682;2023-04-08T00:26:23;17.20;80.20
41116;DHT22;26861;51.824;4.682;2023-04-08T00:28:48;17.00;80.00
41116;DHT22;26861;51.824;4.682;2023-04-08T00:31:14;17.00;80.00
41116;DHT22;26861;51.824;4.682;2023-04-08T00:33:39;17.20;80.10
41116;DHT22;26861;51.824;4.682;2023-04-08T00:36:05;17.00;80.00
41116;DHT22;26861;51.824;4.682;2023-04-08T00:38:31;17.20;80.30
41116;DHT22;26861;51.824;4.682;2023-04-08T00:40:58;17.00;79.80
41116;DHT22;26861;51.824;4.682;2023-04-08T00:43:24;17.10;79.80
41116;DHT22;26861;51.824;4.682;2023-04-08T00:45:50;17.10;79.60
41116;DHT22;26861;51.824;4.682;2023-04-08T00:48:16;17.00;80.10
41116;DHT22;26861;51.824;4.682;2023-04-08T00:50:44;17.10;80.20
41116;DHT22;26861;51.824;4.682;2023-04-08T00:53:14;16.90;80.40
41116;DHT22;26861;51.824;4.682;2023-04-08T00:55:41;17.10;80.20
41116;DHT22;26861;51.824;4.682;2023-04-08T00:58:07;16.80;76.30
41116;DHT22;26861;51.824;4.682;2023-04-08T01:00:34;16.80;79.40
41116;DHT22;26861;51.824;4.682;2023-04-08T01:05:55;16.90;80.00
41116;DHT22;26861;51.824;4.682;2023-04-08T01:08:25;17.10;80.40
41116;DHT22;26861;51.824;4.682;2023-04-08T01:10:57;17.00;80.40
41116;DHT22;26861;51.824;4.682;2023-04-08T01:13:25;16.80;80.40
41116;DHT22;26861;51.824;4.682;2023-04-08T01:15:54;17.10;80.70
41116;DHT22;26861;51.824;4.682;2023-04-08T01:18:21;17.20;80.70
41116;DHT22;26861;51.824;4.682;2023-04-08T01:20:49;17.20;80.30
41116;DHT22;26861;51.824;4.682;2023-04-08T01:23:38;17.10;80.40
41116;DHT22;26861;51.824;4.682;2023-04-08T01:26:05;17.10;80.60
41116;DHT22;26861;51.824;4.682;2023-04-08T01:28:31;17.20;80.50
41116;DHT22;26861;51.824;4.682;2023-04-08T01:30:59;16.90;80.30
41116;DHT22;26861;51.824;4.682;2023-04-08T01:33:26;16.80;80.20
41116;DHT22;26861;51.824;4.682;2023-04-08T01:35:54;17.20;80.70
41116;DHT22;26861;51.824;4.682;2023-04-08T01:38:22;17.20;80.70
41116;DHT22;26861;51.824;4.682;2023-04-08T01:40:48;16.90;80.50
41116;DHT22;26861;51.824;4.682;2023-04-08T01:43:16;17.10;80.90
41116;DHT22;26861;51.824;4.682;2023-04-08T01:45:44;17.10;54.90
41116;DHT22;26861;51.824;4.682;2023-04-08T01:48:12;17.00;72.20
41116;DHT22;26861;51.824;4.682;2023-04-08T01:50:42;17.10;80.60
41116;DHT22;26861;51.824;4.682;2023-04-08T01:53:09;17.10;80.80
41116;DHT22;26861;51.824;4.682;2023-04-08T01:55:36;17.20;80.90
41116;DHT22;26861;51.824;4.682;2023-04-08T01:58:04;17.20;81.00
41116;DHT22;26861;51.824;4.682;2023-04-08T02:00:33;17.00;80.90
41116;DHT22;26861;51.824;4.682;2023-04-08T02:03:00;17.00;81.00
41116;DHT22;26861;51.824;4.682;2023-04-08T02:05:26;17.00;81.00
41116;DHT22;26861;51.824;4.682;2023-04-08T02:07:52;17.20;81.10
41116;DHT22;26861;51.824;4.682;2023-04-08T02:10:17;17.00;80.90
41116;DHT22;26861;51.824;4.682;2023-04-08T02:12:43;17.00;54.80
41116;DHT22;26861;51.824;4.682;2023-04-08T02:15:10;17.10;80.30
41116;DHT22;26861;51.824;4.682;2023-04-08T02:17:49;17.10;80.30
41116;DHT22;26861;51.824;4.682;2023-04-08T02:20:17;17.10;55.40
41116;DHT22;26861;51.824;4.682;2023-04-08T02:22:58;17.10;80.90
41116;DHT22;26861;51.824;4.682;2023-04-08T02:25:24;17.20;80.80
41116;DHT22;26861;51.824;4.682;2023-04-08T02:27:54;17.20;81.30
41116;DHT22;26861;51.824;4.682;2023-04-08T02:30:21;17.10;81.40
41116;DHT22;26861;51.824;4.682;2023-04-08T02:32:49;17.30;81.40
41116;DHT22;26861;51.824;4.682;2023-04-08T02:35:15;17.20;81.60
41116;DHT22;26861;51.824;4.682;2023-04-08T02:37:41;17.10;81.70
41116;DHT22;26861;51.824;4.682;2023-04-08T02:40:23;17.10;81.80
41116;DHT22;26861;51.824;4.682;2023-04-08T02:42:49;17.10;81.60
41116;DHT22;26861;51.824;4.682;2023-04-08T02:45:15;17.10;81.80
41116;DHT22;26861;51.824;4.682;2023-04-08T02:47:40;17.30;81.60
41116;DHT22;26861;51.824;4.682;2023-04-08T02:50:06;17.10;81.40
41116;DHT22;26861;51.824;4.682;2023-04-08T02:52:32;17.10;81.70
41116;DHT22;26861;51.824;4.682;2023-04-08T02:54:58;17.10;81.80
41116;DHT22;26861;51.824;4.682;2023-04-08T02:57:23;17.00;81.50
41116;DHT22;26861;51.824;4.682;2023-04-08T02:59:49;17.10;81.70
41116;DHT22;26861;51.824;4.682;2023-04-08T03:02:15;17.10;81.50
41116;DHT22;26861;51.824;4.682;2023-04-08T03:04:41;17.20;82.00
41116;DHT22;26861;51.824;4.682;2023-04-08T03:07:07;16.70;81.40
41116;DHT22;26861;51.824;4.682;2023-04-08T03:09:32;17.20;81.90
41116;DHT22;26861;51.824;4.682;2023-04-08T03:11:58;17.10;81.90
41116;DHT22;26861;51.824;4.682;2023-04-08T03:14:24;17.20;81.70
41116;DHT22;26861;51.824;4.682;2023-04-08T03:16:49;17.20;81.80
41116;DHT22;26861;51.824;4.682;2023-04-08T03:19:15;17.10;81.60
41116;DHT22;26861;51.824;4.682;2023-04-08T03:21:41;17.20;81.80
41116;DHT22;26861;51.824;4.682;2023-04-08T03:24:06;17.10;81.80
41116;DHT22;26861;51.824;4.682;2023-04-08T03:26:32;17.20;82.20
41116;DHT22;26861;51.824;4.682;2023-04-08T03:28:57;17.00;81.50
41116;DHT22;26861;51.824;4.682;2023-04-08T03:31:23;17.00;81.60
41116;DHT22;26861;51.824;4.682;2023-04-08T03:33:48;17.20;81.70
41116;DHT22;26861;51.824;4.682;2023-04-08T03:36:14;17.10;81.50
41116;DHT22;26861;51.824;4.682;2023-04-08T03:38:40;17.10;81.80
41116;DHT22;26861;51.824;4.682;2023-04-08T03:41:05;17.10;81.90
41116;DHT22;26861;51.824;4.682;2023-04-08T03:45:57;17.10;82.00
41116;DHT22;26861;51.824;4.682;2023-04-08T03:48:23;17.10;82.30
41116;DHT22;26861;51.824;4.682;2023-04-08T03:50:49;16.90;81.90
41116;DHT22;26861;51.824;4.682;2023-04-08T03:55:40;16.90;65.80
41116;DHT22;26861;51.824;4.682;2023-04-08T03:58:06;17.00;82.00
41116;DHT22;26861;51.824;4.682;2023-04-08T04:00:32;17.10;82.70
41116;DHT22;26861;51.824;4.682;2023-04-08T04:02:58;17.20;82.20
41116;DHT22;26861;51.824;4.682;2023-04-08T04:05:24;17.10;82.70
41116;DHT22;26861;51.824;4.682;2023-04-08T04:07:49;17.20;82.40
41116;DHT22;26861;51.824;4.682;2023-04-08T04:10:15;17.10;82.70
41116;DHT22;26861;51.824;4.682;2023-04-08T04:12:40;17.10;72.60
41116;DHT22;26861;51.824;4.682;2023-04-08T04:15:06;17.00;82.50
41116;DHT22;26861;51.824;4.682;2023-04-08T04:17:32;16.90;82.60
41116;DHT22;26861;51.824;4.682;2023-04-08T04:19:57;17.10;83.00
41116;DHT22;26861;51.824;4.682;2023-04-08T04:22:23;17.00;82.00
41116;DHT22;26861;51.824;4.682;2023-04-08T04:24:49;17.10;82.70
41116;DHT22;26861;51.824;4.682;2023-04-08T04:27:15;17.00;82.80
41116;DHT22;26861;51.824;4.682;2023-04-08T04:29:42;17.00;82.90
41116;DHT22;26861;51.824;4.682;2023-04-08T04:32:08;17.00;82.60
41116;DHT22;26861;51.824;4.682;2023-04-08T04:34:33;16.70;82.80
41116;DHT22;26861;51.824;4.682;2023-04-08T04:39:26;17.10;82.90
41116;DHT22;26861;51.824;4.682;2023-04-08T04:41:51;16.90;70.90
41116;DHT22;26861;51.824;4.682;2023-04-08T04:44:17;17.00;82.60
41116;DHT22;26861;51.824;4.682;2023-04-08T04:49:08;17.20;83.20
41116;DHT22;26861;51.824;4.682;2023-04-08T04:54:00;17.30;83.50
41116;DHT22;26861;51.824;4.682;2023-04-08T04:56:25;17.10;83.40
41116;DHT22;26861;51.824;4.682;2023-04-08T04:58:52;16.90;83.30
41116;DHT22;26861;51.824;4.682;2023-04-08T05:01:17;17.10;83.40
41116;DHT22;26861;51.824;4.682;2023-04-08T05:03:43;16.90;83.30
41116;DHT22;26861;51.824;4.682;2023-04-08T05:06:08;17.10;83.60
41116;DHT22;26861;51.824;4.682;2023-04-08T05:08:34;16.80;70.10
41116;DHT22;26861;51.824;4.682;2023-04-08T05:11:00;17.30;83.00
41116;DHT22;26861;51.824;4.682;2023-04-08T05:13:31;17.00;68.20
41116;DHT22;26861;51.824;4.682;2023-04-08T05:15:56;17.10;63.50
41116;DHT22;26861;51.824;4.682;2023-04-08T05:18:22;17.00;83.80
41116;DHT22;26861;51.824;4.682;2023-04-08T05:20:47;17.20;84.00
41116;DHT22;26861;51.824;4.682;2023-04-08T05:23:13;16.90;83.60
41116;DHT22;26861;51.824;4.682;2023-04-08T05:25:38;17.10;81.00
41116;DHT22;26861;51.824;4.682;2023-04-08T05:28:04;16.80;83.70
41116;DHT22;26861;51.824;4.682;2023-04-08T05:30:30;17.20;84.00
41116;DHT22;26861;51.824;4.682;2023-04-08T05:32:56;17.20;84.00
41116;DHT22;26861;51.824;4.682;2023-04-08T05:35:22;17.00;64.10
41116;DHT22;26861;51.824;4.682;2023-04-08T05:37:48;16.70;83.80
41116;DHT22;26861;51.824;4.682;2023-04-08T05:40:14;17.10;84.20
41116;DHT22;26861;51.824;4.682;2023-04-08T05:42:41;17.10;84.20
41116;DHT22;26861;51.824;4.682;2023-04-08T05:45:07;17.10;58.80
41116;DHT22;26861;51.824;4.682;2023-04-08T05:47:33;16.70;74.20
41116;DHT22;26861;51.824;4.682;2023-04-08T05:49:59;17.00;84.70
41116;DHT22;26861;51.824;4.682;2023-04-08T05:52:25;17.00;84.40
41116;DHT22;26861;51.824;4.682;2023-04-08T05:54:50;16.80;84.30
41116;DHT22;26861;51.824;4.682;2023-04-08T05:57:16;16.90;84.60
41116;DHT22;26861;51.824;4.682;2023-04-08T05:59:42;17.20;84.40
41116;DHT22;26861;51.824;4.682;2023-04-08T06:02:07;17.20;84.30
41116;DHT22;26861;51.824;4.682;2023-04-08T06:04:33;16.90;84.40
41116;DHT22;26861;51.824;4.682;2023-04-08T06:06:58;16.80;84.60
41116;DHT22;26861;51.824;4.682;2023-04-08T06:09:27;17.20;84.80
41116;DHT22;26861;51.824;4.682;2023-04-08T06:11:52;17.00;79.10
41116;DHT22;26861;51.824;4.682;2023-04-08T06:14:18;17.20;84.60
41116;DHT22;26861;51.824;4.682;2023-04-08T06:19:12;17.30;84.90
41116;DHT22;26861;51.824;4.682;2023-04-08T06:21:37;17.20;84.10
41116;DHT22;26861;51.824;4.682;2023-04-08T06:24:04;17.20;84.30
41116;DHT22;26861;51.824;4.682;2023-04-08T06:26:30;17.10;84.30
41116;DHT22;26861;51.824;4.682;2023-04-08T06:28:56;16.90;84.00
41116;DHT22;26861;51.824;4.682;2023-04-08T06:31:22;17.20;84.60
41116;DHT22;26861;51.824;4.682;2023-04-08T06:33:49;17.10;84.50
41116;DHT22;26861;51.824;4.682;2023-04-08T06:36:17;16.80;70.20
41116;DHT22;26861;51.824;4.682;2023-04-08T06:38:43;17.20;84.30
41116;DHT22;26861;51.824;4.682;2023-04-08T06:41:09;17.30;84.40
41116;DHT22;26861;51.824;4.682;2023-04-08T06:43:35;16.80;84.20
41116;DHT22;26861;51.824;4.682;2023-04-08T06:46:02;17.40;84.60
41116;DHT22;26861;51.824;4.682;2023-04-08T06:48:28;17.20;84.40
41116;DHT22;26861;51.824;4.682;2023-04-08T06:50:55;16.80;84.60
41116;DHT22;26861;51.824;4.682;2023-04-08T06:53:23;16.90;84.10
41116;DHT22;26861;51.824;4.682;2023-04-08T06:55:49;17.30;84.90
41116;DHT22;26861;51.824;4.682;2023-04-08T06:58:15;17.40;85.10
41116;DHT22;26861;51.824;4.682;2023-04-08T07:00:41;17.00;84.70
41116;DHT22;26861;51.824;4.682;2023-04-08T07:03:07;17.30;84.90
41116;DHT22;26861;51.824;4.682;2023-04-08T07:05:36;17.20;84.80
41116;DHT22;26861;51.824;4.682;2023-04-08T07:08:03;17.10;84.50
41116;DHT22;26861;51.824;4.682;2023-04-08T07:10:29;17.40;85.20
41116;DHT22;26861;51.824;4.682;2023-04-08T07:12:55;17.20;84.80
41116;DHT22;26861;51.824;4.682;2023-04-08T07:15:21;17.20;85.00
41116;DHT22;26861;51.824;4.682;2023-04-08T07:17:47;17.30;85.10
41116;DHT22;26861;51.824;4.682;2023-04-08T07:20:13;17.20;85.00
41116;DHT22;26861;51.824;4.682;2023-04-08T07:22:39;17.10;81.20
41116;DHT22;26861;51.824;4.682;2023-04-08T07:25:06;17.20;85.10
41116;DHT22;26861;51.824;4.682;2023-04-08T07:27:34;17.00;85.10
41116;DHT22;26861;51.824;4.682;2023-04-08T07:30:01;17.00;85.10
41116;DHT22;26861;51.824;4.682;2023-04-08T07:32:27;17.30;63.60
41116;DHT22;26861;51.824;4.682;2023-04-08T07:34:53;17.20;85.10
41116;DHT22;26861;51.824;4.682;2023-04-08T07:37:20;17.00;84.80
41116;DHT22;26861;51.824;4.682;2023-04-08T07:44:38;17.30;84.80
41116;DHT22;26861;51.824;4.682;2023-04-08T07:47:05;17.10;84.50
41116;DHT22;26861;51.824;4.682;2023-04-08T07:49:31;16.70;83.70
41116;DHT22;26861;51.824;4.682;2023-04-08T07:51:57;17.00;84.80
41116;DHT22;26861;51.824;4.682;2023-04-08T07:54:23;17.10;85.00
41116;DHT22;26861;51.824;4.682;2023-04-08T07:56:49;17.10;84.80
41116;DHT22;26861;51.824;4.682;2023-04-08T07:59:15;17.10;84.70
41116;DHT22;26861;51.824;4.682;2023-04-08T08:01:41;17.30;84.60
41116;DHT22;26861;51.824;4.682;2023-04-08T08:06:34;16.80;74.10
41116;DHT22;26861;51.824;4.682;2023-04-08T08:09:00;17.10;84.40
41116;DHT22;26861;51.824;4.682;2023-04-08T08:11:26;17.10;84.70
41116;DHT22;26861;51.824;4.682;2023-04-08T08:13:53;17.00;84.70
41116;DHT22;26861;51.824;4.682;2023-04-08T08:16:19;17.20;84.50
41116;DHT22;26861;51.824;4.682;2023-04-08T08:18:45;17.10;84.70
41116;DHT22;26861;51.824;4.682;2023-04-08T08:21:10;17.20;74.80
41116;DHT22;26861;51.824;4.682;2023-04-08T08:23:36;17.10;84.60
41116;DHT22;26861;51.824;4.682;2023-04-08T08:26:04;17.20;55.90
41116;DHT22;26861;51.824;4.682;2023-04-08T08:30:56;17.10;63.00
41116;DHT22;26861;51.824;4.682;2023-04-08T08:33:23;17.10;84.40
41116;DHT22;26861;51.824;4.682;2023-04-08T08:35:49;16.80;84.20
41116;DHT22;26861;51.824;4.682;2023-04-08T08:38:14;17.30;84.60
41116;DHT22;26861;51.824;4.682;2023-04-08T08:40:43;17.00;84.50
41116;DHT22;26861;51.824;4.682;2023-04-08T08:43:09;17.30;84.60
41116;DHT22;26861;51.824;4.682;2023-04-08T08:45:39;17.30;60.50
41116;DHT22;26861;51.824;4.682;2023-04-08T08:48:06;17.20;84.70
41116;DHT22;26861;51.824;4.682;2023-04-08T08:50:33;17.10;78.10
41116;DHT22;26861;51.824;4.682;2023-04-08T08:52:59;17.20;84.50
41116;DHT22;26861;51.824;4.682;2023-04-08T08:55:25;16.90;84.20
41116;DHT22;26861;51.824;4.682;2023-04-08T08:57:52;17.10;84.60
41116;DHT22;26861;51.824;4.682;2023-04-08T09:00:18;17.20;84.30
41116;DHT22;26861;51.824;4.682;2023-04-08T09:02:55;17.00;84.40
41116;DHT22;26861;51.824;4.682;2023-04-08T09:05:21;17.10;84.30
41116;DHT22;26861;51.824;4.682;2023-04-08T09:07:47;17.30;84.50
41116;DHT22;26861;51.824;4.682;2023-04-08T09:10:13;17.40;84.80
41116;DHT22;26861;51.824;4.682;2023-04-08T09:13:05;17.30;84.70
41116;DHT22;26861;51.824;4.682;2023-04-08T09:20:24;17.40;84.50
41116;DHT22;26861;51.824;4.682;2023-04-08T09:22:56;17.30;84.50
41116;DHT22;26861;51.824;4.682;2023-04-08T09:25:32;17.20;84.20
41116;DHT22;26861;51.824;4.682;2023-04-08T09:27:58;17.30;84.40
41116;DHT22;26861;51.824;4.682;2023-04-08T09:30:25;17.20;84.40
41116;DHT22;26861;51.824;4.682;2023-04-08T09:32:56;17.30;84.40
41116;DHT22;26861;51.824;4.682;2023-04-08T09:35:22;17.30;56.20
41116;DHT22;26861;51.824;4.682;2023-04-08T09:37:48;17.40;75.60
41116;DHT22;26861;51.824;4.682;2023-04-08T09:40:16;17.30;84.40
41116;DHT22;26861;51.824;4.682;2023-04-08T09:42:47;17.40;84.60
41116;DHT22;26861;51.824;4.682;2023-04-08T09:45:16;17.40;84.30
41116;DHT22;26861;51.824;4.682;2023-04-08T09:47:56;17.40;55.50
41116;DHT22;26861;51.824;4.682;2023-04-08T09:50:31;17.10;84.20
41116;DHT22;26861;51.824;4.682;2023-04-08T09:53:48;17.30;84.60
41116;DHT22;26861;51.824;4.682;2023-04-08T09:55:52;17.30;84.10
41116;DHT22;26861;51.824;4.682;2023-04-08T09:58:24;17.70;84.30
41116;DHT22;26861;51.824;4.682;2023-04-08T10:00:53;17.70;62.30
41116;DHT22;26861;51.824;4.682;2023-04-08T10:03:29;17.60;83.70
41116;DHT22;26861;51.824;4.682;2023-04-08T10:06:00;17.80;84.00
41116;DHT22;26861;51.824;4.682;2023-04-08T10:08:26;18.00;83.70
41116;DHT22;26861;51.824;4.682;2023-04-08T10:10:53;18.10;83.70
41116;DHT22;26861;51.824;4.682;2023-04-08T10:13:21;17.90;60.50
41116;DHT22;26861;51.824;4.682;2023-04-08T10:15:47;17.90;83.10
41116;DHT22;26861;51.824;4.682;2023-04-08T10:20:46;18.20;54.20
41116;DHT22;26861;51.824;4.682;2023-04-08T10:23:14;18.50;82.80
41116;DHT22;26861;51.824;4.682;2023-04-08T10:30:44;18.40;82.30
41116;DHT22;26861;51.824;4.682;2023-04-08T10:33:32;18.60;54.10
41116;DHT22;26861;51.824;4.682;2023-04-08T10:36:11;18.70;82.00
41116;DHT22;26861;51.824;4.682;2023-04-08T10:38:40;18.70;82.20
41116;DHT22;26861;51.824;4.682;2023-04-08T10:43:38;18.80;82.20
41116;DHT22;26861;51.824;4.682;2023-04-08T10:46:05;18.80;82.00
41116;DHT22;26861;51.824;4.682;2023-04-08T10:48:31;19.30;82.10
41116;DHT22;26861;51.824;4.682;2023-04-08T10:50:59;19.30;82.00
41116;DHT22;26861;51.824;4.682;2023-04-08T10:53:30;19.30;63.10
41116;DHT22;26861;51.824;4.682;2023-04-08T10:58:33;19.60;82.00
41116;DHT22;26861;51.824;4.682;2023-04-08T11:01:03;19.20;81.40
41116;DHT22;26861;51.824;4.682;2023-04-08T11:03:31;19.30;81.40
41116;DHT22;26861;51.824;4.682;2023-04-08T11:05:59;19.50;53.30
41116;DHT22;26861;51.824;4.682;2023-04-08T11:08:30;19.60;53.10
41116;DHT22;26861;51.824;4.682;2023-04-08T11:10:57;19.50;81.40
41116;DHT22;26861;51.824;4.682;2023-04-08T11:13:25;19.80;81.40
41116;DHT22;26861;51.824;4.682;2023-04-08T11:15:51;19.90;81.50
41116;DHT22;26861;51.824;4.682;2023-04-08T11:18:17;19.90;81.20
41116;DHT22;26861;51.824;4.682;2023-04-08T11:20:43;19.70;81.40
41116;DHT22;26861;51.824;4.682;2023-04-08T11:23:13;20.10;71.30
41116;DHT22;26861;51.824;4.682;2023-04-08T11:25:40;19.80;81.40
41116;DHT22;26861;51.824;4.682;2023-04-08T11:28:07;20.10;77.60
41116;DHT22;26861;51.824;4.682;2023-04-08T11:30:33;19.90;81.20
41116;DHT22;26861;51.824;4.682;2023-04-08T11:33:00;20.10;81.20
41116;DHT22;26861;51.824;4.682;2023-04-08T11:35:30;20.10;65.10
41116;DHT22;26861;51.824;4.682;2023-04-08T11:37:56;20.50;59.60
41116;DHT22;26861;51.824;4.682;2023-04-08T11:40:23;20.40;81.00
41116;DHT22;26861;51.824;4.682;2023-04-08T11:42:50;20.10;80.80
41116;DHT22;26861;51.824;4.682;2023-04-08T11:45:18;20.50;80.90
41116;DHT22;26861;51.824;4.682;2023-04-08T11:50:12;20.90;65.00
41116;DHT22;26861;51.824;4.682;2023-04-08T11:55:11;20.60;80.20
41116;DHT22;26861;51.824;4.682;2023-04-08T11:57:38;21.10;79.70
41116;DHT22;26861;51.824;4.682;2023-04-08T12:00:05;20.80;79.10
41116;DHT22;26861;51.824;4.682;2023-04-08T12:02:31;20.90;64.40
41116;DHT22;26861;51.824;4.682;2023-04-08T12:04:58;21.00;79.40
41116;DHT22;26861;51.824;4.682;2023-04-08T12:07:24;21.30;79.40
41116;DHT22;26861;51.824;4.682;2023-04-08T12:09:50;21.20;79.10
41116;DHT22;26861;51.824;4.682;2023-04-08T12:12:15;20.90;78.90
41116;DHT22;26861;51.824;4.682;2023-04-08T12:14:41;21.00;79.30
41116;DHT22;26861;51.824;4.682;2023-04-08T12:17:07;21.20;78.40
41116;DHT22;26861;51.824;4.682;2023-04-08T12:19:32;21.80;78.70
41116;DHT22;26861;51.824;4.682;2023-04-08T12:21:58;21.60;78.80
41116;DHT22;26861;51.824;4.682;2023-04-08T12:24:23;21.20;78.90
41116;DHT22;26861;51.824;4.682;2023-04-08T12:26:49;21.70;79.20
41116;DHT22;26861;51.824;4.682;2023-04-08T12:29:15;21.70;79.10
41116;DHT22;26861;51.824;4.682;2023-04-08T12:34:06;21.80;78.60
41116;DHT22;26861;51.824;4.682;2023-04-08T12:36:32;21.90;79.10
41116;DHT22;26861;51.824;4.682;2023-04-08T12:41:25;22.00;78.60
41116;DHT22;26861;51.824;4.682;2023-04-08T12:43:51;21.70;78.70
41116;DHT22;26861;51.824;4.682;2023-04-08T12:46:17;22.10;78.50
41116;DHT22;26861;51.824;4.682;2023-04-08T12:48:43;21.50;77.80
41116;DHT22;26861;51.824;4.682;2023-04-08T12:51:10;22.30;77.80
41116;DHT22;26861;51.824;4.682;2023-04-08T12:53:36;22.20;77.90
41116;DHT22;26861;51.824;4.682;2023-04-08T12:56:03;22.20;77.30
41116;DHT22;26861;51.824;4.682;2023-04-08T12:58:29;21.70;70.20
41116;DHT22;26861;51.824;4.682;2023-04-08T13:00:55;22.00;76.80
41116;DHT22;26861;51.824;4.682;2023-04-08T13:05:47;22.20;77.00
41116;DHT22;26861;51.824;4.682;2023-04-08T13:08:14;22.50;76.60
41116;DHT22;26861;51.824;4.682;2023-04-08T13:10:41;22.40;76.40
41116;DHT22;26861;51.824;4.682;2023-04-08T13:13:08;22.50;76.50
41116;DHT22;26861;51.824;4.682;2023-04-08T13:15:34;22.70;76.00
41116;DHT22;26861;51.824;4.682;2023-04-08T13:18:00;22.80;75.30
41116;DHT22;26861;51.824;4.682;2023-04-08T13:20:26;22.70;76.00
41116;DHT22;26861;51.824;4.682;2023-04-08T13:22:52;22.50;75.70
41116;DHT22;26861;51.824;4.682;2023-04-08T13:25:19;23.00;75.60
41116;DHT22;26861;51.824;4.682;2023-04-08T13:27:45;23.10;75.40
41116;DHT22;26861;51.824;4.682;2023-04-08T13:30:11;22.70;75.50
41116;DHT22;26861;51.824;4.682;2023-04-08T13:32:37;23.10;75.70
41116;DHT22;26861;51.824;4.682;2023-04-08T13:37:30;22.90;76.10
41116;DHT22;26861;51.824;4.682;2023-04-08T13:39:56;23.20;76.00
41116;DHT22;26861;51.824;4.682;2023-04-08T13:42:22;23.20;76.10
41116;DHT22;26861;51.824;4.682;2023-04-08T13:44:48;23.10;76.20
41116;DHT22;26861;51.824;4.682;2023-04-08T13:47:14;22.70;76.20
41116;DHT22;26861;51.824;4.682;2023-04-08T13:49:41;23.20;76.60
41116;DHT22;26861;51.824;4.682;2023-04-08T13:52:07;22.70;76.40
41116;DHT22;26861;51.824;4.682;2023-04-08T13:54:34;23.20;76.40
41116;DHT22;26861;51.824;4.682;2023-04-08T13:59:27;23.40;76.30
41116;DHT22;26861;51.824;4.682;2023-04-08T14:01:53;23.30;76.10
41116;DHT22;26861;51.824;4.682;2023-04-08T14:04:20;23.40;76.50
41116;DHT22;26861;51.824;4.682;2023-04-08T14:06:47;22.90;76.20
41116;DHT22;26861;51.824;4.682;2023-04-08T14:09:15;22.90;76.20
41116;DHT22;26861;51.824;4.682;2023-04-08T14:11:42;22.80;75.80
41116;DHT22;26861;51.824;4.682;2023-04-08T14:14:08;22.80;75.70
41116;DHT22;26861;51.824;4.682;2023-04-08T14:16:33;23.40;76.10
41116;DHT22;26861;51.824;4.682;2023-04-08T14:19:00;23.50;76.30
41116;DHT22;26861;51.824;4.682;2023-04-08T14:21:26;23.00;76.10
41116;DHT22;26861;51.824;4.682;2023-04-08T14:23:52;23.00;76.10
41116;DHT22;26861;51.824;4.682;2023-04-08T14:26:17;23.40;76.50
41116;DHT22;26861;51.824;4.682;2023-04-08T14:28:43;23.50;76.20
41116;DHT22;26861;51.824;4.682;2023-04-08T14:33:35;22.90;75.50
41116;DHT22;26861;51.824;4.682;2023-04-08T14:36:01;23.30;75.80
41116;DHT22;26861;51.824;4.682;2023-04-08T14:38:27;23.30;75.70
41116;DHT22;26861;51.824;4.682;2023-04-08T14:40:53;23.50;76.10
41116;DHT22;26861;51.824;4.682;2023-04-08T14:43:20;22.80;76.20
41116;DHT22;26861;51.824;4.682;2023-04-08T14:45:46;23.10;76.60
41116;DHT22;26861;51.824;4.682;2023-04-08T14:50:39;22.60;77.00
41116;DHT22;26861;51.824;4.682;2023-04-08T14:55:31;22.00;69.90
41116;DHT22;26861;51.824;4.682;2023-04-08T14:57:57;22.40;78.20
41116;DHT22;26861;51.824;4.682;2023-04-08T15:00:23;22.10;79.00
41116;DHT22;26861;51.824;4.682;2023-04-08T15:02:51;21.70;79.00
41116;DHT22;26861;51.824;4.682;2023-04-08T15:05:16;22.00;74.20
41116;DHT22;26861;51.824;4.682;2023-04-08T15:07:42;21.60;79.80
41116;DHT22;26861;51.824;4.682;2023-04-08T15:10:08;21.80;79.90
41116;DHT22;26861;51.824;4.682;2023-04-08T15:12:34;21.20;79.80
41116;DHT22;26861;51.824;4.682;2023-04-08T15:19:54;21.40;80.60
41116;DHT22;26861;51.824;4.682;2023-04-08T15:22:20;21.20;78.90
41116;DHT22;26861;51.824;4.682;2023-04-08T15:24:46;21.40;81.20
41116;DHT22;26861;51.824;4.682;2023-04-08T15:27:16;20.80;80.90
41116;DHT22;26861;51.824;4.682;2023-04-08T15:29:42;21.10;81.40
41116;DHT22;26861;51.824;4.682;2023-04-08T15:32:08;21.30;81.40
41116;DHT22;26861;51.824;4.682;2023-04-08T15:34:34;21.00;81.30
41116;DHT22;26861;51.824;4.682;2023-04-08T15:39:27;20.80;81.20
41116;DHT22;26861;51.824;4.682;2023-04-08T15:41:53;21.10;81.90
41116;DHT22;26861;51.824;4.682;2023-04-08T15:44:19;21.00;81.80
41116;DHT22;26861;51.824;4.682;2023-04-08T15:46:45;21.00;81.30
41116;DHT22;26861;51.824;4.682;2023-04-08T15:51:38;21.20;75.30
41116;DHT22;26861;51.824;4.682;2023-04-08T15:54:04;21.20;81.10
41116;DHT22;26861;51.824;4.682;2023-04-08T15:56:30;21.30;69.50
41116;DHT22;26861;51.824;4.682;2023-04-08T15:58:56;21.50;80.40
41116;DHT22;26861;51.824;4.682;2023-04-08T16:01:22;21.30;80.40
41116;DHT22;26861;51.824;4.682;2023-04-08T16:03:48;21.80;80.70
41116;DHT22;26861;51.824;4.682;2023-04-08T16:06:14;21.60;80.40
41116;DHT22;26861;51.824;4.682;2023-04-08T16:08:40;21.50;80.20
41116;DHT22;26861;51.824;4.682;2023-04-08T16:11:06;22.00;81.00
41116;DHT22;26861;51.824;4.682;2023-04-08T16:16:02;22.00;80.20
41116;DHT22;26861;51.824;4.682;2023-04-08T16:18:29;21.50;80.30
41116;DHT22;26861;51.824;4.682;2023-04-08T16:20:55;21.90;80.30
41116;DHT22;26861;51.824;4.682;2023-04-08T16:23:22;22.00;79.70
41116;DHT22;26861;51.824;4.682;2023-04-08T16:28:13;21.20;70.80
41116;DHT22;26861;51.824;4.682;2023-04-08T16:30:39;21.30;76.80
41116;DHT22;26861;51.824;4.682;2023-04-08T16:33:08;21.40;79.00
41116;DHT22;26861;51.824;4.682;2023-04-08T16:35:35;21.40;79.30
41116;DHT22;26861;51.824;4.682;2023-04-08T16:38:00;21.60;78.90
41116;DHT22;26861;51.824;4.682;2023-04-08T16:43:01;21.20;78.40
41116;DHT22;26861;51.824;4.682;2023-04-08T16:45:28;21.20;79.30
41116;DHT22;26861;51.824;4.682;2023-04-08T16:47:54;21.10;79.80
41116;DHT22;26861;51.824;4.682;2023-04-08T16:50:20;21.60;79.90
41116;DHT22;26861;51.824;4.682;2023-04-08T16:55:15;21.40;80.30
41116;DHT22;26861;51.824;4.682;2023-04-08T16:57:41;21.30;80.60